Time;durP1;ratioP1;P1;durP2;ratioP2;P2;SDS_P1;SDS_P2;PMS_P1;PMS_P2;Temp;Humidity;BMP_temperature;BMP_pressure;BME280_temperature;BME280_humidity;BME280_pressure;Samples;Min_cycle;Max_cycle;Signal;HPM_P1;HPM_P2
2024/02/04 00:01:10;;;;;;;10.50;7.70;;;;;;;4.74;85.22;95668.02;106718;1275;22632;-76
2024/02/04 00:03:57;;;;;;;10.00;7.50;;;;;;;4.73;85.51;95662.77;106874;1275;22529;-77
2024/02/04 00:06:26;;;;;;;10.20;7.90;;;;;;;4.72;85.18;95659.11;106669;1275;24211;-77
2024/02/04 00:08:55;;;;;;;12.60;8.40;;;;;;;4.70;85.23;95662.77;106764;1275;22530;-76
2024/02/04 00:11:23;;;;;;;10.50;7.20;;;;;;;4.69;85.50;95655.61;106662;1275;22526;-77
2024/02/04 00:13:52;;;;;;;10.00;7.40;;;;;;;4.68;85.39;95658.73;106699;1275;24414;-76
2024/02/04 00:16:20;;;;;;;9.60;7.70;;;;;;;4.64;85.50;95658.04;106840;1275;22520;-77
2024/02/04 00:18:48;;;;;;;13.20;8.60;;;;;;;4.63;85.10;95659.60;106677;1275;22519;-77
2024/02/04 00:21:16;;;;;;;11.50;8.40;;;;;;;4.60;85.55;95663.77;106643;1275;22511;-77
2024/02/04 00:23:44;;;;;;;11.00;7.70;;;;;;;4.59;85.76;95669.51;106677;1275;24275;-76
2024/02/04 00:26:13;;;;;;;11.80;7.90;;;;;;;4.57;86.12;95672.61;106676;1275;22519;-78
2024/02/04 00:28:42;;;;;;;12.20;8.60;;;;;;;4.58;85.98;95677.68;106706;1275;22527;-77
2024/02/04 00:31:11;;;;;;;10.90;8.60;;;;;;;4.59;85.74;95680.30;106824;1275;24089;-77
2024/02/04 00:33:39;;;;;;;13.70;9.60;;;;;;;4.58;86.01;95665.14;106631;1275;22529;-76
2024/02/04 00:36:08;;;;;;;14.90;9.40;;;;;;;4.57;85.44;95658.16;106735;1275;24359;-77
2024/02/04 00:38:36;;;;;;;14.20;8.80;;;;;;;4.53;85.74;95655.52;106691;1275;22529;-77
2024/02/04 00:41:05;;;;;;;12.50;8.20;;;;;;;4.53;85.67;95656.73;106645;1275;25554;-77
2024/02/04 00:43:33;;;;;;;10.30;7.40;;;;;;;4.51;85.73;95655.34;106627;1275;22525;-78
2024/02/04 00:46:02;;;;;;;11.10;8.10;;;;;;;4.51;86.06;95652.21;106691;1265;24253;-77
2024/02/04 00:48:31;;;;;;;9.60;7.20;;;;;;;4.52;86.20;95652.73;106668;1275;25565;-77
2024/02/04 00:50:59;;;;;;;12.40;9.00;;;;;;;4.52;86.32;95660.58;106689;1275;24343;-77
2024/02/04 00:53:33;;;;;;;10.50;7.70;;;;;;;4.52;86.28;95660.56;106557;1275;22627;-77
2024/02/04 00:56:05;;;;;;;8.30;7.00;;;;;;;4.54;86.36;95656.92;106682;1275;24408;-77
2024/02/04 00:58:33;;;;;;;13.30;8.40;;;;;;;4.55;86.34;95653.10;106712;1275;22520;-77
2024/02/04 01:01:01;;;;;;;9.10;6.90;;;;;;;4.56;86.28;95652.58;106742;1275;25438;-77
2024/02/04 01:03:31;;;;;;;10.00;7.80;;;;;;;4.55;86.62;95652.23;106624;1275;22533;-77
2024/02/04 01:06:00;;;;;;;9.20;6.70;;;;;;;4.55;86.61;95654.14;106681;1275;25244;-77
2024/02/04 01:08:28;;;;;;;9.80;7.70;;;;;;;4.57;86.74;95657.99;106651;1275;22638;-77
2024/02/04 01:10:57;;;;;;;11.60;8.00;;;;;;;4.59;86.58;95661.32;106663;1274;24214;-77
2024/02/04 01:13:25;;;;;;;10.80;7.90;;;;;;;4.60;86.39;95656.09;106675;1275;25413;-78
2024/02/04 01:15:53;;;;;;;10.30;7.50;;;;;;;4.60;86.22;95659.75;106466;1275;25294;-77
2024/02/04 01:18:21;;;;;;;9.60;6.30;;;;;;;4.60;86.26;95650.87;106673;1275;22520;-78
2024/02/04 01:20:50;;;;;;;9.40;6.60;;;;;;;4.59;86.39;95655.91;106676;1275;24257;-76
2024/02/04 01:23:18;;;;;;;13.40;7.70;;;;;;;4.60;86.26;95654.35;106684;1253;25714;-78
2024/02/04 01:25:46;;;;;;;9.80;6.90;;;;;;;4.60;86.10;95644.60;106707;1275;22609;-78
2024/02/04 01:28:15;;;;;;;8.20;6.30;;;;;;;4.60;86.28;95642.50;106647;1275;22520;-77
2024/02/04 01:30:43;;;;;;;8.00;6.00;;;;;;;4.59;86.40;95641.79;106666;1275;22553;-76
2024/02/04 01:33:11;;;;;;;7.40;5.70;;;;;;;4.58;86.16;95642.15;106868;1275;22784;-76
2024/02/04 01:35:39;;;;;;;9.90;7.00;;;;;;;4.53;86.25;95631.31;106976;1275;22989;-76
2024/02/04 01:38:07;;;;;;;9.90;7.10;;;;;;;4.52;86.54;95628.69;106810;1275;25416;-76
2024/02/04 01:40:36;;;;;;;7.30;5.90;;;;;;;4.53;86.54;95629.21;106827;1275;24322;-76
2024/02/04 01:43:04;;;;;;;10.50;6.70;;;;;;;4.54;86.45;95625.40;106721;1275;25293;-76
2024/02/04 01:45:32;;;;;;;8.70;6.90;;;;;;;4.55;86.33;95620.88;106612;1275;22527;-76
2024/02/04 01:48:01;;;;;;;6.70;5.70;;;;;;;4.54;86.30;95620.17;106667;1275;24471;-77
2024/02/04 01:50:30;;;;;;;8.60;6.60;;;;;;;4.53;86.50;95623.82;106790;1275;22527;-77
2024/02/04 01:52:58;;;;;;;8.20;6.20;;;;;;;4.52;86.59;95619.27;107032;1275;22547;-78
2024/02/04 01:55:27;;;;;;;7.40;5.30;;;;;;;4.48;86.65;95613.17;106886;1259;22556;-76
2024/02/04 01:57:55;;;;;;;7.50;5.90;;;;;;;4.47;86.44;95607.42;106727;1275;22520;-77
2024/02/04 02:00:24;;;;;;;7.90;6.20;;;;;;;4.47;86.47;95613.51;106763;1260;22550;-76
2024/02/04 02:02:53;;;;;;;6.90;5.50;;;;;;;4.44;86.39;95602.88;106605;1275;22663;-76
2024/02/04 02:05:21;;;;;;;6.80;5.20;;;;;;;4.42;86.07;95599.04;106646;1275;24211;-76
2024/02/04 02:07:51;;;;;;;7.10;5.00;;;;;;;4.40;85.97;95606.52;106691;1275;24429;-76
2024/02/04 02:10:20;;;;;;;7.60;5.20;;;;;;;4.39;85.90;95606.68;106641;1275;22504;-76
2024/02/04 02:12:51;;;;;;;8.70;5.60;;;;;;;4.37;85.90;95602.33;106796;1275;22565;-76
2024/02/04 02:15:24;;;;;;;6.30;5.30;;;;;;;4.35;86.33;95594.83;106971;1275;22530;-77
2024/02/04 02:17:59;;;;;;;5.50;4.50;;;;;;;4.39;86.27;95596.74;106760;1275;22603;-76
2024/02/04 02:21:01;;;;;;;7.80;5.40;;;;;;;4.42;86.06;95598.34;106682;1275;22524;-77
2024/02/04 02:23:31;;;;;;;8.50;4.90;;;;;;;4.46;86.10;95605.48;106894;1275;25481;-77
2024/02/04 02:26:00;;;;;;;8.00;5.10;;;;;;;4.47;85.84;95607.59;106720;1275;24260;-76
2024/02/04 02:28:28;;;;;;;6.60;4.90;;;;;;;4.49;85.59;95604.30;106669;1275;24343;-76
2024/02/04 02:30:56;;;;;;;5.20;4.20;;;;;;;4.51;85.43;95615.29;106618;1275;25522;-75
2024/02/04 02:33:24;;;;;;;5.30;4.70;;;;;;;4.53;85.23;95617.39;106626;1275;25383;-76
2024/02/04 02:35:57;;;;;;;6.80;5.60;;;;;;;4.53;85.28;95611.10;106664;1275;22522;-76
2024/02/04 02:38:43;;;;;;;6.00;5.10;;;;;;;4.54;85.23;95612.52;106625;1275;24202;-77
2024/02/04 02:41:15;;;;;;;8.80;6.30;;;;;;;4.55;85.23;95605.88;106613;1264;22656;-76
2024/02/04 02:43:46;;;;;;;7.30;5.40;;;;;;;4.52;85.34;95610.76;106902;1275;22536;-77
2024/02/04 02:46:14;;;;;;;9.00;6.10;;;;;;;4.52;85.53;95616.33;106670;1275;25502;-77
2024/02/04 02:48:43;;;;;;;7.80;5.90;;;;;;;4.51;85.54;95608.14;106632;1275;22527;-76
2024/02/04 02:51:11;;;;;;;6.70;4.60;;;;;;;4.52;85.54;95605.36;106691;1275;24226;-76
2024/02/04 02:53:40;;;;;;;7.50;5.20;;;;;;;4.51;85.60;95598.90;106567;1275;22515;-76
2024/02/04 02:56:08;;;;;;;8.60;6.10;;;;;;;4.51;85.60;95593.15;106629;1275;24210;-76
2024/02/04 02:58:36;;;;;;;6.40;5.40;;;;;;;4.50;85.56;95595.41;106612;1275;22526;-76
2024/02/04 03:01:04;;;;;;;8.00;5.90;;;;;;;4.52;85.48;95601.70;106514;1275;24385;-76
2024/02/04 03:03:33;;;;;;;6.30;5.30;;;;;;;4.52;85.33;95611.27;106736;1275;22517;-76
2024/02/04 03:06:01;;;;;;;7.70;5.10;;;;;;;4.54;85.44;95614.25;106606;1275;22523;-76
2024/02/04 03:08:29;;;;;;;7.70;5.80;;;;;;;4.54;85.27;95613.73;106637;1275;22603;-76
2024/02/04 03:10:58;;;;;;;7.10;5.30;;;;;;;4.55;85.16;95622.09;106695;1275;22650;-76
2024/02/04 03:13:26;;;;;;;6.80;5.50;;;;;;;4.54;85.21;95619.66;106635;1275;24125;-76
2024/02/04 03:15:54;;;;;;;6.50;5.00;;;;;;;4.54;85.33;95624.53;106593;1275;22639;-76
2024/02/04 03:18:22;;;;;;;7.00;5.70;;;;;;;4.55;85.32;95629.58;106675;1275;25431;-76
2024/02/04 03:20:50;;;;;;;5.90;4.40;;;;;;;4.59;85.24;95632.05;106640;1275;25369;-76
2024/02/04 03:23:19;;;;;;;6.10;5.10;;;;;;;4.60;85.11;95622.12;106591;1275;24326;-77
2024/02/04 03:25:48;;;;;;;6.80;4.80;;;;;;;4.59;85.08;95620.55;106843;1275;22597;-76
2024/02/04 03:28:16;;;;;;;6.90;5.20;;;;;;;4.61;85.18;95616.20;106589;1275;25433;-76
2024/02/04 03:30:44;;;;;;;6.90;5.20;;;;;;;4.61;85.09;95613.41;106592;1275;26686;-76
2024/02/04 03:33:13;;;;;;;6.30;5.10;;;;;;;4.61;84.93;95616.20;106632;1275;25268;-76
2024/02/04 03:35:42;;;;;;;7.20;5.30;;;;;;;4.62;84.90;95619.87;106654;1275;22533;-76
2024/02/04 03:38:10;;;;;;;9.80;6.20;;;;;;;4.61;84.92;95620.91;106647;1275;25351;-76
2024/02/04 03:40:42;;;;;;;10.80;6.80;;;;;;;4.62;85.05;95618.65;106680;1274;25428;-76
2024/02/04 03:43:11;;;;;;;8.10;6.00;;;;;;;4.62;84.96;95619.52;106838;1275;24749;-76
2024/02/04 03:45:39;;;;;;;7.30;5.40;;;;;;;4.61;84.67;95617.43;106642;1275;22531;-76
2024/02/04 03:48:07;;;;;;;6.40;4.60;;;;;;;4.60;84.76;95614.80;106662;1275;22528;-76
2024/02/04 03:50:36;;;;;;;5.70;4.60;;;;;;;4.61;84.88;95609.05;106630;1275;24282;-76
2024/02/04 03:53:04;;;;;;;6.60;5.10;;;;;;;4.62;84.79;95603.32;106653;1275;25383;-76
2024/02/04 03:55:32;;;;;;;6.00;4.70;;;;;;;4.62;84.74;95604.36;106589;1275;25292;-76
2024/02/04 03:58:00;;;;;;;6.00;4.90;;;;;;;4.63;84.71;95602.44;106599;1275;22562;-76
2024/02/04 04:00:29;;;;;;;7.80;5.50;;;;;;;4.64;84.72;95602.98;106669;1275;22526;-76
2024/02/04 04:02:57;;;;;;;5.70;4.30;;;;;;;4.66;84.57;95607.86;106698;1275;25369;-76
2024/02/04 04:05:26;;;;;;;7.00;4.90;;;;;;;4.64;84.50;95605.77;106547;1275;22526;-76
2024/02/04 04:07:55;;;;;;;6.00;4.30;;;;;;;4.64;84.35;95600.70;106794;1275;24401;-76
2024/02/04 04:10:23;;;;;;;7.70;4.80;;;;;;;4.63;84.33;95598.96;106590;1275;22531;-76
2024/02/04 04:12:51;;;;;;;5.50;3.90;;;;;;;4.64;84.56;95602.29;106617;1275;22749;-76
2024/02/04 04:15:19;;;;;;;6.40;4.30;;;;;;;4.66;84.68;95604.02;106611;1275;22523;-76
2024/02/04 04:17:47;;;;;;;4.90;4.10;;;;;;;4.68;84.53;95605.44;106615;1275;22530;-76
2024/02/04 04:20:16;;;;;;;5.30;4.10;;;;;;;4.68;84.28;95604.04;106699;1275;25402;-76
2024/02/04 04:22:44;;;;;;;5.40;3.80;;;;;;;4.68;84.35;95602.65;106605;1275;22516;-76
2024/02/04 04:25:13;;;;;;;4.30;3.30;;;;;;;4.67;84.06;95601.76;106601;1275;22517;-76
2024/02/04 04:27:42;;;;;;;6.10;4.40;;;;;;;4.62;84.07;95603.14;106700;1275;22526;-76
2024/02/04 04:30:11;;;;;;;6.40;4.80;;;;;;;4.62;84.41;95607.50;106559;1275;25365;-76
2024/02/04 04:32:39;;;;;;;6.70;4.40;;;;;;;4.63;84.52;95609.23;106719;1275;22719;-76
2024/02/04 04:35:07;;;;;;;6.50;4.60;;;;;;;4.65;84.61;95611.68;106777;1275;25337;-76
2024/02/04 04:37:35;;;;;;;6.20;5.10;;;;;;;4.65;84.48;95612.05;106615;1275;25383;-76
2024/02/04 04:40:04;;;;;;;6.40;4.90;;;;;;;4.64;84.63;95613.60;106641;1275;22521;-76
2024/02/04 04:42:32;;;;;;;7.10;5.40;;;;;;;4.63;84.59;95614.99;106695;1275;23135;-76
2024/02/04 04:45:01;;;;;;;17.60;10.50;;;;;;;4.61;85.20;95613.59;106670;1275;25498;-76
2024/02/04 04:47:29;;;;;;;31.10;16.50;;;;;;;4.60;84.91;95610.09;106589;1275;22523;-76
2024/02/04 04:49:57;;;;;;;12.90;10.40;;;;;;;4.59;84.95;95606.09;106742;1275;22616;-76
2024/02/04 04:52:25;;;;;;;8.30;6.40;;;;;;;4.57;85.15;95595.45;106603;1275;23032;-76
2024/02/04 04:54:55;;;;;;;8.10;6.40;;;;;;;4.55;85.22;95588.48;106614;1275;22544;-76
2024/02/04 04:57:23;;;;;;;6.80;5.20;;;;;;;4.52;85.60;95599.61;106734;1275;22671;-76
2024/02/04 04:59:51;;;;;;;6.80;5.30;;;;;;;4.50;85.65;95615.28;106621;1275;24222;-76
2024/02/04 05:02:19;;;;;;;5.50;4.60;;;;;;;4.50;85.86;95623.81;106757;1275;22503;-76
2024/02/04 05:04:48;;;;;;;7.10;6.10;;;;;;;4.48;86.18;95615.79;106754;1275;25246;-76
2024/02/04 05:07:16;;;;;;;7.10;5.70;;;;;;;4.47;86.24;95615.95;106615;1275;23885;-76
2024/02/04 05:09:45;;;;;;;8.20;5.60;;;;;;;4.44;86.95;95606.70;106676;1275;22761;-76
2024/02/04 05:12:13;;;;;;;5.90;4.70;;;;;;;4.42;86.62;95609.31;106647;1275;24393;-76
2024/02/04 05:14:41;;;;;;;6.70;6.00;;;;;;;4.38;86.89;95605.98;106619;1275;25308;-76
2024/02/04 05:17:10;;;;;;;7.10;5.30;;;;;;;4.37;86.89;95604.23;106699;1275;22536;-76
2024/02/04 05:19:38;;;;;;;6.30;5.30;;;;;;;4.36;86.66;95599.70;106890;1275;23790;-76
2024/02/04 05:22:06;;;;;;;6.10;5.30;;;;;;;4.36;86.58;95606.15;106635;1275;25349;-76
2024/02/04 05:24:35;;;;;;;5.60;4.40;;;;;;;4.36;86.54;95612.25;106661;1275;22535;-76
2024/02/04 05:27:03;;;;;;;6.60;5.30;;;;;;;4.34;86.56;95617.63;106606;1275;25441;-76
2024/02/04 05:29:32;;;;;;;5.10;4.60;;;;;;;4.36;86.60;95619.90;106572;1275;22679;-76
2024/02/04 05:32:00;;;;;;;6.00;5.00;;;;;;;4.37;86.45;95620.94;106692;1275;25462;-76
2024/02/04 05:34:30;;;;;;;5.50;4.60;;;;;;;4.38;86.36;95628.44;106610;1275;22544;-76
2024/02/04 05:36:58;;;;;;;6.20;5.10;;;;;;;4.36;86.25;95617.30;106607;1275;22534;-76
2024/02/04 05:39:27;;;;;;;5.30;4.00;;;;;;;4.33;86.70;95614.65;106705;1275;22519;-76
2024/02/04 05:41:55;;;;;;;10.80;7.00;;;;;;;4.33;86.52;95607.70;106621;1275;22535;-76
2024/02/04 05:44:23;;;;;;;15.40;9.50;;;;;;;4.33;86.48;95598.30;106592;1275;22641;-76
2024/02/04 05:46:51;;;;;;;26.00;16.20;;;;;;;4.30;86.74;95584.52;106587;1275;23895;-76
2024/02/04 05:49:20;;;;;;;22.00;14.30;;;;;;;4.30;86.69;95579.65;106649;1275;24335;-76
2024/02/04 05:51:49;;;;;;;9.90;7.10;;;;;;;4.28;86.81;95576.67;106696;1275;22530;-76
2024/02/04 05:54:17;;;;;;;5.10;4.60;;;;;;;4.30;86.56;95583.81;106598;1275;22645;-76
2024/02/04 05:56:45;;;;;;;5.50;4.70;;;;;;;4.34;86.46;95595.85;106462;1253;24350;-76
2024/02/04 05:59:13;;;;;;;5.70;4.70;;;;;;;4.36;86.25;95594.83;106715;1275;22647;-76
2024/02/04 06:01:42;;;;;;;4.60;4.20;;;;;;;4.39;86.19;95593.63;106868;1274;22534;-76
2024/02/04 06:04:10;;;;;;;5.50;4.40;;;;;;;4.42;85.87;95598.70;106931;1275;22517;-76
2024/02/04 06:06:39;;;;;;;5.50;4.30;;;;;;;4.42;85.80;95597.81;106626;1275;25657;-76
2024/02/04 06:09:08;;;;;;;4.40;3.80;;;;;;;4.45;85.66;95595.91;106636;1275;25499;-76
2024/02/04 06:11:36;;;;;;;6.10;4.90;;;;;;;4.45;85.51;95588.08;106654;1275;24375;-76
2024/02/04 06:14:05;;;;;;;4.20;3.80;;;;;;;4.48;85.54;95587.21;106858;1275;22599;-76
2024/02/04 06:16:34;;;;;;;5.70;4.80;;;;;;;4.47;85.52;95584.25;106607;1275;24478;-76
2024/02/04 06:19:02;;;;;;;7.30;5.70;;;;;;;4.46;85.44;95582.15;106653;1275;22530;-76
2024/02/04 06:21:31;;;;;;;6.30;4.60;;;;;;;4.45;85.45;95583.19;106707;1275;24417;-76
2024/02/04 06:23:59;;;;;;;6.40;4.60;;;;;;;4.44;85.51;95589.83;106625;1275;22517;-76
2024/02/04 06:26:27;;;;;;;7.00;4.90;;;;;;;4.42;85.45;95585.63;106665;1275;22594;-76
2024/02/04 06:28:55;;;;;;;7.10;5.10;;;;;;;4.39;85.58;95583.34;106866;1275;22528;-76
2024/02/04 06:31:23;;;;;;;6.20;4.90;;;;;;;4.39;85.56;95588.91;106676;1275;22523;-77
2024/02/04 06:33:52;;;;;;;6.30;5.50;;;;;;;4.42;85.33;95589.98;106733;1275;22523;-76
2024/02/04 06:36:20;;;;;;;6.10;4.70;;;;;;;4.43;85.24;95589.27;106609;1275;24310;-76
2024/02/04 06:38:48;;;;;;;5.90;4.30;;;;;;;4.43;85.19;95593.29;106631;1275;25250;-76
2024/02/04 06:41:16;;;;;;;5.10;4.50;;;;;;;4.45;84.99;95602.01;106716;1275;23910;-76
2024/02/04 06:43:46;;;;;;;4.80;4.00;;;;;;;4.47;84.82;95620.84;106378;1275;22633;-76
2024/02/04 06:46:24;;;;;;;4.80;4.00;;;;;;;4.50;84.76;95623.63;106638;1275;24280;-76
2024/02/04 06:48:52;;;;;;;6.50;4.30;;;;;;;4.53;84.46;95613.56;106895;1275;22590;-76
2024/02/04 06:51:21;;;;;;;3.00;2.70;;;;;;;4.56;84.37;95609.38;106779;1275;25428;-76
2024/02/04 06:53:49;;;;;;;5.10;4.20;;;;;;;4.56;84.28;95600.67;106589;1275;25379;-76
2024/02/04 06:56:17;;;;;;;6.20;4.90;;;;;;;4.59;84.23;95602.95;106664;1275;22602;-76
2024/02/04 06:58:46;;;;;;;4.90;4.00;;;;;;;4.60;84.14;95610.80;106839;1275;22771;-76
2024/02/04 07:01:14;;;;;;;4.90;3.60;;;;;;;4.60;84.11;95612.19;106656;1275;25355;-76
2024/02/04 07:03:43;;;;;;;7.40;4.50;;;;;;;4.59;84.12;95607.66;106847;1271;26532;-76
2024/02/04 07:06:11;;;;;;;5.90;4.30;;;;;;;4.59;84.15;95608.18;106609;1252;24242;-76
2024/02/04 07:08:39;;;;;;;5.40;4.80;;;;;;;4.60;84.09;95605.39;106620;1275;22912;-76
2024/02/04 07:11:08;;;;;;;4.20;3.30;;;;;;;4.62;84.13;95613.59;106590;1275;24260;-76
2024/02/04 07:13:36;;;;;;;5.80;4.40;;;;;;;4.63;84.00;95618.13;106917;1275;22523;-76
2024/02/04 07:16:04;;;;;;;4.60;3.90;;;;;;;4.64;83.95;95611.52;106741;1275;25355;-76
2024/02/04 07:18:33;;;;;;;4.90;4.20;;;;;;;4.65;83.94;95596.01;106677;1275;24409;-76
2024/02/04 07:21:01;;;;;;;4.40;3.70;;;;;;;4.66;83.66;95599.15;106464;1275;25492;-76
2024/02/04 07:23:29;;;;;;;4.20;3.80;;;;;;;4.69;83.62;95608.22;106714;1263;25642;-76
2024/02/04 07:25:57;;;;;;;5.00;3.50;;;;;;;4.70;83.57;95619.38;106610;1275;25463;-76
2024/02/04 07:28:25;;;;;;;3.30;2.70;;;;;;;4.69;83.43;95626.17;106602;1275;24524;-76
2024/02/04 07:30:53;;;;;;;5.10;4.00;;;;;;;4.68;83.14;95624.95;106642;1275;25311;-77
2024/02/04 07:33:22;;;;;;;5.20;4.10;;;;;;;4.70;83.09;95618.86;106622;1275;22535;-76
2024/02/04 07:35:50;;;;;;;8.20;4.90;;;;;;;4.72;83.12;95621.30;106603;1275;27046;-76
2024/02/04 07:38:18;;;;;;;7.20;4.60;;;;;;;4.75;83.10;95624.28;106693;1265;22664;-76
2024/02/04 07:40:46;;;;;;;5.90;4.20;;;;;;;4.78;83.04;95627.94;106624;1275;22576;-76
2024/02/04 07:43:15;;;;;;;9.60;4.90;;;;;;;4.87;83.05;95624.67;106570;1257;25499;-76
2024/02/04 07:45:43;;;;;;;7.80;4.60;;;;;;;4.99;82.95;95633.96;106704;1275;23637;-76
2024/02/04 07:48:11;;;;;;;10.50;6.00;;;;;;;5.15;82.66;95638.20;106633;1275;22532;-77
2024/02/04 07:50:39;;;;;;;5.50;4.00;;;;;;;5.26;82.21;95648.35;107002;1275;22994;-76
2024/02/04 07:53:08;;;;;;;5.90;4.10;;;;;;;5.25;81.48;95651.82;106669;1252;24376;-76
2024/02/04 07:55:36;;;;;;;4.30;3.80;;;;;;;5.20;81.28;95654.24;106602;1275;25316;-76
2024/02/04 07:58:04;;;;;;;4.60;3.70;;;;;;;5.15;81.12;95661.20;106642;1275;22520;-76
2024/02/04 08:00:33;;;;;;;4.90;3.80;;;;;;;5.04;81.52;95656.81;106616;1275;22522;-76
2024/02/04 08:03:01;;;;;;;4.90;3.70;;;;;;;4.94;82.11;95657.65;106153;1275;626185;-76
2024/02/04 08:05:31;;;;;;;4.00;3.60;;;;;;;4.90;82.28;95656.23;106737;1275;22606;-76
2024/02/04 08:07:59;;;;;;;5.10;3.70;;;;;;;4.91;82.33;95652.05;106612;1275;24212;-77
2024/02/04 08:10:28;;;;;;;5.40;3.80;;;;;;;4.93;82.45;95636.04;106719;1275;22527;-76
2024/02/04 08:12:56;;;;;;;5.00;4.50;;;;;;;5.00;82.44;95633.96;106625;1275;25358;-76
2024/02/04 08:15:25;;;;;;;5.00;4.00;;;;;;;5.07;82.45;95641.48;106437;1275;23940;-76
2024/02/04 08:17:53;;;;;;;5.40;4.30;;;;;;;5.11;82.35;95642.02;106591;1275;22647;-76
2024/02/04 08:20:21;;;;;;;3.90;3.50;;;;;;;5.10;82.46;95646.38;106666;1275;22521;-77
2024/02/04 08:22:51;;;;;;;3.80;3.50;;;;;;;5.09;82.13;95647.95;106605;1275;22533;-76
2024/02/04 08:25:20;;;;;;;4.10;3.30;;;;;;;5.07;82.03;95634.70;106629;1275;22573;-76
2024/02/04 08:27:48;;;;;;;3.60;3.20;;;;;;;5.07;82.16;95644.10;106635;1275;24349;-76
2024/02/04 08:30:18;;;;;;;5.30;3.50;;;;;;;5.04;82.04;95635.55;106425;1275;25284;-76
2024/02/04 08:32:46;;;;;;;3.80;3.00;;;;;;;5.04;82.14;95636.42;106624;1275;25378;-76
2024/02/04 08:35:15;;;;;;;3.70;3.40;;;;;;;5.03;82.00;95632.23;106653;1275;22639;-76
2024/02/04 08:37:43;;;;;;;3.90;3.40;;;;;;;5.04;81.83;95636.05;106662;1275;22653;-76
2024/02/04 08:40:11;;;;;;;3.40;2.90;;;;;;;5.04;81.65;95632.76;106637;1275;24468;-76
2024/02/04 08:42:40;;;;;;;3.30;2.90;;;;;;;5.16;81.50;95611.70;106638;1275;22528;-76
2024/02/04 08:45:08;;;;;;;3.70;3.00;;;;;;;5.45;81.42;95606.86;106644;1275;25432;-76
2024/02/04 08:47:36;;;;;;;3.40;2.70;;;;;;;5.74;80.13;95612.83;106756;1275;25554;-76
2024/02/04 08:50:06;;;;;;;2.90;2.60;;;;;;;6.00;79.48;95611.45;106664;1275;22583;-76
2024/02/04 08:52:34;;;;;;;2.90;2.60;;;;;;;6.24;79.12;95605.33;106619;1275;22521;-78
2024/02/04 08:55:03;;;;;;;2.30;2.10;;;;;;;6.47;77.96;95602.66;106639;1275;24240;-76
2024/02/04 08:57:32;;;;;;;2.10;1.80;;;;;;;6.72;77.62;95601.36;106629;1275;23274;-77
2024/02/04 09:00:00;;;;;;;2.30;2.10;;;;;;;6.87;75.68;95607.24;106609;1275;25337;-76
2024/02/04 09:02:29;;;;;;;2.50;1.70;;;;;;;6.88;74.90;95621.92;106648;1275;25300;-76
2024/02/04 09:04:57;;;;;;;3.40;2.00;;;;;;;6.90;75.03;95613.52;106582;1275;24084;-77
2024/02/04 09:07:25;;;;;;;3.20;2.30;;;;;;;7.06;74.92;95619.75;106591;1266;22548;-76
2024/02/04 09:09:54;;;;;;;2.00;1.80;;;;;;;7.25;74.05;95625.78;106668;1275;22936;-76
2024/02/04 09:12:22;;;;;;;2.60;2.00;;;;;;;7.30;73.54;95619.98;106615;1275;22587;-77
2024/02/04 09:14:50;;;;;;;1.90;1.70;;;;;;;7.51;74.54;95628.27;106623;1275;22618;-76
2024/02/04 09:17:19;;;;;;;2.30;2.00;;;;;;;7.62;72.97;95629.58;106692;1275;22528;-77
2024/02/04 09:19:47;;;;;;;2.20;2.00;;;;;;;7.48;72.30;95631.42;106589;1275;22633;-77
2024/02/04 09:22:16;;;;;;;2.60;1.90;;;;;;;7.45;72.95;95629.34;106699;1275;24376;-76
2024/02/04 09:24:44;;;;;;;2.00;1.50;;;;;;;7.47;72.99;95633.01;106680;1275;25340;-76
2024/02/04 09:27:13;;;;;;;4.30;3.20;;;;;;;7.49;72.48;95633.87;106643;1275;22550;-76
2024/02/04 09:29:41;;;;;;;2.00;1.80;;;;;;;7.52;72.73;95640.16;106689;1275;24352;-77
2024/02/04 09:32:09;;;;;;;2.00;1.80;;;;;;;7.58;72.91;95639.41;106657;1275;25517;-76
2024/02/04 09:34:38;;;;;;;7.00;5.30;;;;;;;7.78;73.01;95644.54;106613;1275;22539;-77
2024/02/04 09:37:07;;;;;;;3.70;3.30;;;;;;;7.85;72.19;95638.52;106726;1275;22528;-77
2024/02/04 09:39:36;;;;;;;2.20;2.00;;;;;;;7.92;72.36;95648.64;106611;1275;22530;-76
2024/02/04 09:42:04;;;;;;;2.40;2.20;;;;;;;7.81;71.85;95647.84;106718;1275;22546;-76
2024/02/04 09:44:35;;;;;;;4.30;3.20;;;;;;;7.67;71.93;95647.41;106652;1275;24256;-76
2024/02/04 09:47:07;;;;;;;1.90;1.70;;;;;;;7.59;72.07;95641.34;106684;1271;22565;-76
2024/02/04 09:49:36;;;;;;;3.00;2.80;;;;;;;7.33;72.49;95630.45;106489;1275;22538;-78
2024/02/04 09:52:08;;;;;;;3.60;2.40;;;;;;;7.35;72.90;95632.02;106743;1275;24055;-77
2024/02/04 09:54:47;;;;;;;2.30;2.10;;;;;;;7.49;73.70;95624.95;106651;1265;22545;-77
2024/02/04 09:57:17;;;;;;;4.20;2.60;;;;;;;7.57;72.74;95622.09;106662;1275;24221;-76
2024/02/04 09:59:47;;;;;;;3.10;2.80;;;;;;;7.35;72.89;95629.58;106673;1275;22545;-76
2024/02/04 10:02:15;;;;;;;3.00;2.70;;;;;;;7.23;73.24;95634.36;106680;1275;25403;-76
2024/02/04 10:04:49;;;;;;;;;;;;;;;7.06;73.52;95628.15;106714;1275;25735;-76
2024/02/04 10:07:18;;;;;;;2.90;2.50;;;;;;;7.03;74.37;95621.87;106721;1275;23925;-76
2024/02/04 10:09:47;;;;;;;4.80;3.50;;;;;;;7.07;74.25;95618.52;106723;1275;22679;-76
2024/02/04 10:12:15;;;;;;;3.00;2.50;;;;;;;7.08;74.66;95613.44;106692;1275;22557;-77
2024/02/04 10:14:43;;;;;;;2.60;2.30;;;;;;;7.06;74.37;95616.08;106633;1275;25358;-77
2024/02/04 10:17:15;;;;;;;3.00;2.40;;;;;;;7.07;74.51;95606.10;106607;1275;25264;-77
2024/02/04 10:19:43;;;;;;;2.60;2.10;;;;;;;6.90;74.25;95609.69;106739;1275;25567;-76
2024/02/04 10:22:12;;;;;;;2.60;2.30;;;;;;;6.78;74.32;95598.52;106653;1275;22532;-77
2024/02/04 10:24:40;;;;;;;2.80;2.30;;;;;;;6.68;74.82;95590.53;106621;1275;24959;-76
2024/02/04 10:27:12;;;;;;;2.10;1.90;;;;;;;6.61;75.12;95588.45;106635;1275;22734;-77
2024/02/04 10:29:53;;;;;;;2.80;2.50;;;;;;;6.52;75.57;95588.83;106619;1275;25294;-76
2024/02/04 10:32:22;;;;;;;3.40;2.40;;;;;;;6.47;75.73;95589.55;106750;1275;22527;-76
2024/02/04 10:34:53;;;;;;;3.50;2.70;;;;;;;6.43;75.98;95584.84;106777;1275;22527;-76
2024/02/04 10:37:21;;;;;;;3.10;2.80;;;;;;;6.38;76.22;95583.27;106639;1275;22536;-76
2024/02/04 10:39:51;;;;;;;3.20;2.90;;;;;;;6.34;76.23;95581.19;106667;1275;24231;-76
2024/02/04 10:42:28;;;;;;;3.10;2.60;;;;;;;6.28;76.42;95588.89;106612;1275;24368;-76
2024/02/04 10:44:58;;;;;;;3.40;2.60;;;;;;;6.24;76.60;95586.98;106647;1275;22521;-77
2024/02/04 10:47:35;;;;;;;3.20;2.90;;;;;;;6.17;77.15;95584.19;106717;1275;22537;-76
2024/02/04 10:50:05;;;;;;;3.40;3.10;;;;;;;6.15;77.14;95583.50;106639;1275;22819;-76
2024/02/04 10:52:42;;;;;;;2.80;2.50;;;;;;;6.07;77.59;95583.52;106688;1275;24341;-76
2024/02/04 10:55:11;;;;;;;2.70;2.50;;;;;;;5.99;77.80;95583.02;106553;1275;22521;-77
2024/02/04 10:57:40;;;;;;;2.70;2.50;;;;;;;5.99;78.51;95584.92;106686;1275;22520;-76
2024/02/04 11:00:11;;;;;;;3.40;2.70;;;;;;;5.96;78.41;95588.77;106632;1275;22632;-76
2024/02/04 11:02:45;;;;;;;5.20;3.00;;;;;;;5.93;78.45;95592.24;106658;1275;22517;-77
2024/02/04 11:05:14;;;;;;;;;;;;;;;5.91;78.72;95590.30;106703;1275;22667;-76
2024/02/04 11:07:43;;;;;;;4.40;3.20;;;;;;;5.89;78.85;95591.17;106653;1275;24447;-76
2024/02/04 11:10:11;;;;;;;2.70;2.30;;;;;;;5.90;79.22;95593.62;106708;1275;22526;-76
2024/02/04 11:12:41;;;;;;;2.80;2.50;;;;;;;5.83;78.87;95591.70;106655;1273;24220;-78
2024/02/04 11:15:14;;;;;;;3.30;3.00;;;;;;;5.71;79.62;95593.11;106728;1263;24407;-76
2024/02/04 11:17:42;;;;;;;4.20;3.00;;;;;;;5.70;79.85;95594.68;106650;1275;22646;-77
2024/02/04 11:20:27;;;;;;;3.30;2.50;;;;;;;5.69;79.81;95593.63;106641;1275;22538;-76
2024/02/04 11:23:21;;;;;;;4.00;3.50;;;;;;;5.70;79.78;95591.37;106673;1275;24244;-77
2024/02/04 11:25:53;;;;;;;3.80;3.20;;;;;;;5.75;79.85;95593.27;106632;1275;22530;-76
2024/02/04 11:28:26;;;;;;;5.20;4.10;;;;;;;5.70;80.10;95594.67;106652;1275;25355;-77
2024/02/04 11:30:55;;;;;;;4.40;3.70;;;;;;;5.67;80.11;95598.52;106601;1275;22537;-78
2024/02/04 11:33:24;;;;;;;6.90;4.30;;;;;;;5.64;80.36;95592.58;106713;1275;22772;-77
2024/02/04 11:36:06;;;;;;;6.10;4.40;;;;;;;5.61;80.63;95588.73;106687;1275;24377;-76
2024/02/04 11:38:37;;;;;;;8.20;4.50;;;;;;;5.62;80.66;95586.13;106688;1275;22637;-76
2024/02/04 11:41:06;;;;;;;4.00;3.40;;;;;;;5.62;80.97;95588.57;106683;1275;22681;-77